sensor_id;sensor_type;location;lat;lon;timestamp;pressure;altitude;pressure_sealevel;temperature;humidity
22830;BME280;11581;51.250;6.778;2023-02-11T00:01:54;103065.53;;;9.91;57.37
22830;BME280;11581;51.250;6.778;2023-02-11T00:04:21;103054.44;;;9.83;57.36
22830;BME280;11581;51.250;6.778;2023-02-11T00:06:49;103059.41;;;9.89;57.85
22830;BME280;11581;51.250;6.778;2023-02-11T00:09:16;103039.84;;;9.75;57.49
22830;BME280;11581;51.250;6.778;2023-02-11T00:11:43;103056.75;;;9.89;57.58
22830;BME280;11581;51.250;6.778;2023-02-11T00:14:10;103010.44;;;9.45;57.60
22830;BME280;11581;51.250;6.778;2023-02-11T00:16:37;103056.75;;;9.89;57.34
22830;BME280;11581;51.250;6.778;2023-02-11T00:19:04;102979.44;;;9.44;57.44
22830;BME280;11581;51.250;6.778;2023-02-11T00:21:32;103049.72;;;9.88;57.42
22830;BME280;11581;51.250;6.778;2023-02-11T00:24:01;103053.31;;;9.87;57.75
22830;BME280;11581;51.250;6.778;2023-02-11T00:26:30;103043.50;;;9.88;57.89
22830;BME280;11581;51.250;6.778;2023-02-11T00:28:57;103032.84;;;9.88;57.55
22830;BME280;11581;51.250;6.778;2023-02-11T00:31:25;102986.97;;;9.67;57.53
22830;BME280;11581;51.250;6.778;2023-02-11T00:33:52;103020.41;;;9.88;57.58
22830;BME280;11581;51.250;6.778;2023-02-11T00:36:21;102956.06;;;9.49;57.71
22830;BME280;11581;51.250;6.778;2023-02-11T00:38:49;103020.22;;;9.91;57.72
22830;BME280;11581;51.250;6.778;2023-02-11T00:41:18;103022.88;;;9.91;57.87
22830;BME280;11581;51.250;6.778;2023-02-11T00:43:46;102930.47;;;9.31;57.45
22830;BME280;11581;51.250;6.778;2023-02-11T00:46:15;103033.63;;;9.90;57.88
22830;BME280;11581;51.250;6.778;2023-02-11T00:48:43;103033.72;;;9.88;57.51
22830;BME280;11581;51.250;6.778;2023-02-11T00:51:10;103037.31;;;9.87;57.42
22830;BME280;11581;51.250;6.778;2023-02-11T00:53:37;103036.56;;;9.85;57.54
22830;BME280;11581;51.250;6.778;2023-02-11T00:56:05;103034.91;;;9.83;57.70
22830;BME280;11581;51.250;6.778;2023-02-11T00:58:34;103043.03;;;9.81;58.16
22830;BME280;11581;51.250;6.778;2023-02-11T01:01:03;103029.88;;;9.78;57.88
22830;BME280;11581;51.250;6.778;2023-02-11T01:03:30;103029.97;;;9.77;57.81
22830;BME280;11581;51.250;6.778;2023-02-11T01:05:57;103027.47;;;9.74;57.89
22830;BME280;11581;51.250;6.778;2023-02-11T01:08:24;103025.81;;;9.71;57.95
22830;BME280;11581;51.250;6.778;2023-02-11T01:10:55;103005.38;;;9.56;58.77
22830;BME280;11581;51.250;6.778;2023-02-11T01:13:24;103022.41;;;9.69;58.23
22830;BME280;11581;51.250;6.778;2023-02-11T01:15:55;103018.09;;;9.67;58.43
22830;BME280;11581;51.250;6.778;2023-02-11T01:18:23;103011.56;;;9.57;57.98
22830;BME280;11581;51.250;6.778;2023-02-11T01:20:50;102998.09;;;9.44;58.20
22830;BME280;11581;51.250;6.778;2023-02-11T01:23:17;103034.34;;;9.62;58.31
22830;BME280;11581;51.250;6.778;2023-02-11T01:25:44;103031.88;;;9.59;58.13
22830;BME280;11581;51.250;6.778;2023-02-11T01:28:15;103036.31;;;9.59;58.85
22830;BME280;11581;51.250;6.778;2023-02-11T01:30:43;103037.34;;;9.56;58.35
22830;BME280;11581;51.250;6.778;2023-02-11T01:33:11;103035.63;;;9.55;58.94
22830;BME280;11581;51.250;6.778;2023-02-11T01:35:39;103040.19;;;9.53;58.61
22830;BME280;11581;51.250;6.778;2023-02-11T01:38:12;103034.88;;;9.53;58.82
22830;BME280;11581;51.250;6.778;2023-02-11T01:40:45;102939.56;;;8.96;58.73
22830;BME280;11581;51.250;6.778;2023-02-11T01:43:11;103039.25;;;9.54;58.86
22830;BME280;11581;51.250;6.778;2023-02-11T01:45:58;102995.56;;;9.10;60.10
22830;BME280;11581;51.250;6.778;2023-02-11T01:48:29;103058.50;;;9.59;59.67
22830;BME280;11581;51.250;6.778;2023-02-11T01:51:01;103054.88;;;9.60;59.32
22830;BME280;11581;51.250;6.778;2023-02-11T01:53:31;103048.50;;;9.63;59.27
22830;BME280;11581;51.250;6.778;2023-02-11T01:56:17;103045.75;;;9.64;58.99
22830;BME280;11581;51.250;6.778;2023-02-11T01:59:15;103006.59;;;9.51;59.62
22830;BME280;11581;51.250;6.778;2023-02-11T02:01:47;103025.97;;;9.68;59.37
22830;BME280;11581;51.250;6.778;2023-02-11T02:04:18;102933.81;;;9.19;59.08
22830;BME280;11581;51.250;6.778;2023-02-11T02:06:49;102965.41;;;9.41;59.42
22830;BME280;11581;51.250;6.778;2023-02-11T02:09:21;102985.09;;;9.54;59.44
22830;BME280;11581;51.250;6.778;2023-02-11T02:11:49;102992.47;;;9.64;58.66
22830;BME280;11581;51.250;6.778;2023-02-11T02:14:17;103012.22;;;9.76;58.99
22830;BME280;11581;51.250;6.778;2023-02-11T02:16:44;103005.19;;;9.75;58.89
22830;BME280;11581;51.250;6.778;2023-02-11T02:19:30;103006.06;;;9.75;59.88
22830;BME280;11581;51.250;6.778;2023-02-11T02:22:40;103006.81;;;9.77;59.79
22830;BME280;11581;51.250;6.778;2023-02-11T02:28:20;102995.91;;;9.66;59.51
22830;BME280;11581;51.250;6.778;2023-02-11T02:31:09;103005.81;;;9.80;59.82
22830;BME280;11581;51.250;6.778;2023-02-11T02:33:52;103009.22;;;9.82;59.36
22830;BME280;11581;51.250;6.778;2023-02-11T02:36:26;102974.50;;;9.68;58.95
22830;BME280;11581;51.250;6.778;2023-02-11T02:38:58;102961.53;;;9.62;58.84
22830;BME280;11581;51.250;6.778;2023-02-11T02:41:29;102993.13;;;9.83;58.79
22830;BME280;11581;51.250;6.778;2023-02-11T02:43:56;102991.34;;;9.84;58.65
22830;BME280;11581;51.250;6.778;2023-02-11T02:46:25;102994.84;;;9.84;58.87
22830;BME280;11581;51.250;6.778;2023-02-11T02:48:54;102995.72;;;9.85;58.85
22830;BME280;11581;51.250;6.778;2023-02-11T02:51:36;102992.25;;;9.83;59.62
22830;BME280;11581;51.250;6.778;2023-02-11T02:57:27;102995.03;;;9.81;59.46
22830;BME280;11581;51.250;6.778;2023-02-11T03:00:05;103003.97;;;9.80;59.41
22830;BME280;11581;51.250;6.778;2023-02-11T03:02:40;103002.19;;;9.81;59.20
22830;BME280;11581;51.250;6.778;2023-02-11T03:05:16;102990.25;;;9.72;59.60
22830;BME280;11581;51.250;6.778;2023-02-11T03:07:48;102981.22;;;9.59;59.29
22830;BME280;11581;51.250;6.778;2023-02-11T03:10:21;103007.59;;;9.79;59.29
22830;BME280;11581;51.250;6.778;2023-02-11T03:12:52;103006.63;;;9.80;59.15
22830;BME280;11581;51.250;6.778;2023-02-11T03:15:22;102876.53;;;9.12;59.07
22830;BME280;11581;51.250;6.778;2023-02-11T03:17:52;102938.34;;;9.48;59.08
22830;BME280;11581;51.250;6.778;2023-02-11T03:20:21;102934.47;;;9.54;59.34
22830;BME280;11581;51.250;6.778;2023-02-11T03:22:52;102964.94;;;9.79;59.29
22830;BME280;11581;51.250;6.778;2023-02-11T03:25:25;102896.25;;;9.39;59.53
22830;BME280;11581;51.250;6.778;2023-02-11T03:28:03;102937.13;;;9.69;59.35
22830;BME280;11581;51.250;6.778;2023-02-11T03:30:37;102954.38;;;9.78;59.50
22830;BME280;11581;51.250;6.778;2023-02-11T03:33:07;102959.78;;;9.76;59.19
22830;BME280;11581;51.250;6.778;2023-02-11T03:35:40;102958.09;;;9.75;59.90
22830;BME280;11581;51.250;6.778;2023-02-11T03:38:13;102875.84;;;9.24;59.56
22830;BME280;11581;51.250;6.778;2023-02-11T03:40:42;102959.97;;;9.73;59.54
22830;BME280;11581;51.250;6.778;2023-02-11T03:43:13;102959.28;;;9.70;59.41
22830;BME280;11581;51.250;6.778;2023-02-11T03:45:42;102851.56;;;8.99;59.43
22830;BME280;11581;51.250;6.778;2023-02-11T03:48:13;102965.00;;;9.64;59.66
22830;BME280;11581;51.250;6.778;2023-02-11T03:50:44;102969.28;;;9.66;60.10
22830;BME280;11581;51.250;6.778;2023-02-11T03:53:13;102948.56;;;9.56;59.59
22830;BME280;11581;51.250;6.778;2023-02-11T03:55:42;102964.13;;;9.63;59.80
22830;BME280;11581;51.250;6.778;2023-02-11T03:58:09;102984.91;;;9.72;59.64
22830;BME280;11581;51.250;6.778;2023-02-11T04:00:38;102977.94;;;9.70;59.75
22830;BME280;11581;51.250;6.778;2023-02-11T04:03:08;102850.63;;;9.00;59.78
22830;BME280;11581;51.250;6.778;2023-02-11T04:05:35;102942.28;;;9.57;59.77
22830;BME280;11581;51.250;6.778;2023-02-11T04:08:06;102867.91;;;9.08;60.61
22830;BME280;11581;51.250;6.778;2023-02-11T04:10:33;102965.56;;;9.69;59.92
22830;BME280;11581;51.250;6.778;2023-02-11T04:13:01;102948.81;;;9.67;59.90
22830;BME280;11581;51.250;6.778;2023-02-11T04:15:27;102958.63;;;9.66;59.99
22830;BME280;11581;51.250;6.778;2023-02-11T04:17:54;102961.28;;;9.66;60.32
22830;BME280;11581;51.250;6.778;2023-02-11T04:20:21;102937.13;;;9.54;60.14
22830;BME280;11581;51.250;6.778;2023-02-11T04:22:48;102916.88;;;9.51;60.47
22830;BME280;11581;51.250;6.778;2023-02-11T04:25:17;102900.91;;;9.36;60.56
22830;BME280;11581;51.250;6.778;2023-02-11T04:27:44;102948.13;;;9.63;60.40
22830;BME280;11581;51.250;6.778;2023-02-11T04:30:13;102921.88;;;9.42;60.43
22830;BME280;11581;51.250;6.778;2023-02-11T04:32:40;102957.16;;;9.61;60.74
22830;BME280;11581;51.250;6.778;2023-02-11T04:35:07;102924.53;;;9.42;60.58
22830;BME280;11581;51.250;6.778;2023-02-11T04:37:34;102869.50;;;9.11;60.64
22830;BME280;11581;51.250;6.778;2023-02-11T04:40:01;102934.06;;;9.46;60.79
22830;BME280;11581;51.250;6.778;2023-02-11T04:42:30;102908.03;;;9.35;61.02
22830;BME280;11581;51.250;6.778;2023-02-11T04:44:57;102957.66;;;9.67;60.87
22830;BME280;11581;51.250;6.778;2023-02-11T04:47:24;102960.22;;;9.69;61.01
22830;BME280;11581;51.250;6.778;2023-02-11T04:49:51;102972.50;;;9.71;60.97
22830;BME280;11581;51.250;6.778;2023-02-11T04:52:18;102971.59;;;9.72;60.72
22830;BME280;11581;51.250;6.778;2023-02-11T04:54:46;102956.91;;;9.65;60.96
22830;BME280;11581;51.250;6.778;2023-02-11T04:57:15;102950.19;;;9.58;60.98
22830;BME280;11581;51.250;6.778;2023-02-11T04:59:43;102970.81;;;9.70;61.36
22830;BME280;11581;51.250;6.778;2023-02-11T05:02:10;102978.03;;;9.68;61.28
22830;BME280;11581;51.250;6.778;2023-02-11T05:04:37;102966.59;;;9.66;61.43
22830;BME280;11581;51.250;6.778;2023-02-11T05:07:04;102976.47;;;9.64;61.49
22830;BME280;11581;51.250;6.778;2023-02-11T05:09:32;102967.75;;;9.62;61.50
22830;BME280;11581;51.250;6.778;2023-02-11T05:11:59;102964.28;;;9.60;61.64
22830;BME280;11581;51.250;6.778;2023-02-11T05:14:26;102942.16;;;9.44;61.68
22830;BME280;11581;51.250;6.778;2023-02-11T05:16:55;102970.06;;;9.53;62.36
22830;BME280;11581;51.250;6.778;2023-02-11T05:19:22;102967.22;;;9.56;62.25
22830;BME280;11581;51.250;6.778;2023-02-11T05:21:49;102945.94;;;9.40;62.38
22830;BME280;11581;51.250;6.778;2023-02-11T05:24:18;102954.50;;;9.45;62.33
22830;BME280;11581;51.250;6.778;2023-02-11T05:26:45;102913.88;;;9.26;62.64
22830;BME280;11581;51.250;6.778;2023-02-11T05:29:11;102957.78;;;9.50;62.87
22830;BME280;11581;51.250;6.778;2023-02-11T05:31:39;102927.72;;;9.33;62.89
22830;BME280;11581;51.250;6.778;2023-02-11T05:34:07;102959.84;;;9.45;63.38
22830;BME280;11581;51.250;6.778;2023-02-11T05:36:34;102972.41;;;9.43;62.97
22830;BME280;11581;51.250;6.778;2023-02-11T05:39:01;102974.28;;;9.41;63.42
22830;BME280;11581;51.250;6.778;2023-02-11T05:41:28;102962.84;;;9.39;63.51
22830;BME280;11581;51.250;6.778;2023-02-11T05:43:55;102935.28;;;9.25;63.68
22830;BME280;11581;51.250;6.778;2023-02-11T05:46:22;102946.28;;;9.34;63.91
22830;BME280;11581;51.250;6.778;2023-02-11T05:48:49;102938.38;;;9.33;63.80
22830;BME280;11581;51.250;6.778;2023-02-11T05:51:18;102934.94;;;9.31;64.16
22830;BME280;11581;51.250;6.778;2023-02-11T05:53:45;102909.28;;;9.14;63.93
22830;BME280;11581;51.250;6.778;2023-02-11T05:56:12;102931.59;;;9.27;64.04
22830;BME280;11581;51.250;6.778;2023-02-11T05:58:39;102936.13;;;9.25;64.46
22830;BME280;11581;51.250;6.778;2023-02-11T06:01:05;102931.78;;;9.24;64.46
22830;BME280;11581;51.250;6.778;2023-02-11T06:03:32;102930.50;;;9.16;64.73
22830;BME280;11581;51.250;6.778;2023-02-11T06:05:59;102945.25;;;9.21;64.74
22830;BME280;11581;51.250;6.778;2023-02-11T06:08:27;102914.31;;;9.03;65.21
22830;BME280;11581;51.250;6.778;2023-02-11T06:10:57;102953.16;;;9.23;65.15
22830;BME280;11581;51.250;6.778;2023-02-11T06:13:24;102909.34;;;8.97;64.90
22830;BME280;11581;51.250;6.778;2023-02-11T06:15:55;102862.81;;;8.73;66.01
22830;BME280;11581;51.250;6.778;2023-02-11T06:18:24;102949.63;;;9.22;65.70
22830;BME280;11581;51.250;6.778;2023-02-11T06:20:51;102892.50;;;8.81;65.21
22830;BME280;11581;51.250;6.778;2023-02-11T06:23:18;102940.72;;;9.23;65.36
22830;BME280;11581;51.250;6.778;2023-02-11T06:25:46;102945.94;;;9.25;65.66
22830;BME280;11581;51.250;6.778;2023-02-11T06:28:13;102888.50;;;8.89;65.32
22830;BME280;11581;51.250;6.778;2023-02-11T06:30:41;102816.91;;;8.54;65.38
22830;BME280;11581;51.250;6.778;2023-02-11T06:33:08;102951.59;;;9.34;65.52
22830;BME280;11581;51.250;6.778;2023-02-11T06:35:37;102949.72;;;9.36;65.64
22830;BME280;11581;51.250;6.778;2023-02-11T06:38:04;102952.19;;;9.39;65.40
22830;BME280;11581;51.250;6.778;2023-02-11T06:40:32;102957.34;;;9.42;65.23
22830;BME280;11581;51.250;6.778;2023-02-11T06:43:01;102916.94;;;9.20;65.54
22830;BME280;11581;51.250;6.778;2023-02-11T06:45:28;102952.63;;;9.47;65.20
22830;BME280;11581;51.250;6.778;2023-02-11T06:47:54;102960.44;;;9.50;65.10
22830;BME280;11581;51.250;6.778;2023-02-11T06:50:21;102959.41;;;9.53;65.04
22830;BME280;11581;51.250;6.778;2023-02-11T06:52:49;102963.78;;;9.54;65.07
22830;BME280;11581;51.250;6.778;2023-02-11T06:55:16;102955.69;;;9.55;64.63
22830;BME280;11581;51.250;6.778;2023-02-11T06:57:43;102965.44;;;9.56;64.83
22830;BME280;11581;51.250;6.778;2023-02-11T07:00:14;102944.91;;;9.43;65.01
22830;BME280;11581;51.250;6.778;2023-02-11T07:02:41;102966.19;;;9.58;64.74
22830;BME280;11581;51.250;6.778;2023-02-11T07:05:08;102966.19;;;9.58;64.61
22830;BME280;11581;51.250;6.778;2023-02-11T07:07:36;102841.53;;;8.88;64.76
22830;BME280;11581;51.250;6.778;2023-02-11T07:10:04;102937.69;;;9.45;64.68
22830;BME280;11581;51.250;6.778;2023-02-11T07:12:31;102965.06;;;9.62;64.83
22830;BME280;11581;51.250;6.778;2023-02-11T07:14:58;102961.44;;;9.63;64.52
22830;BME280;11581;51.250;6.778;2023-02-11T07:17:27;102960.84;;;9.58;64.80
22830;BME280;11581;51.250;6.778;2023-02-11T07:19:53;102976.31;;;9.67;64.91
22830;BME280;11581;51.250;6.778;2023-02-11T07:22:21;102931.50;;;9.44;64.74
22830;BME280;11581;51.250;6.778;2023-02-11T07:24:47;102941.63;;;9.53;64.69
22830;BME280;11581;51.250;6.778;2023-02-11T07:27:16;102983.16;;;9.71;64.86
22830;BME280;11581;51.250;6.778;2023-02-11T07:29:42;102924.44;;;9.43;64.56
22830;BME280;11581;51.250;6.778;2023-02-11T07:32:11;102941.44;;;9.56;64.51
22830;BME280;11581;51.250;6.778;2023-02-11T07:34:39;102981.19;;;9.75;64.74
22830;BME280;11581;51.250;6.778;2023-02-11T07:37:06;102989.09;;;9.76;64.68
22830;BME280;11581;51.250;6.778;2023-02-11T07:39:33;102965.91;;;9.63;64.73
22830;BME280;11581;51.250;6.778;2023-02-11T07:42:00;102989.91;;;9.78;64.70
22830;BME280;11581;51.250;6.778;2023-02-11T07:44:28;102987.97;;;9.80;64.80
22830;BME280;11581;51.250;6.778;2023-02-11T07:46:59;102978.63;;;9.73;65.08
22830;BME280;11581;51.250;6.778;2023-02-11T07:49:26;102961.28;;;9.66;64.75
22830;BME280;11581;51.250;6.778;2023-02-11T07:51:54;103000.00;;;9.87;65.12
22830;BME280;11581;51.250;6.778;2023-02-11T07:54:21;102990.06;;;9.75;64.64
22830;BME280;11581;51.250;6.778;2023-02-11T07:56:48;102992.16;;;9.84;64.72
22830;BME280;11581;51.250;6.778;2023-02-11T07:59:15;103011.97;;;9.96;64.57
22830;BME280;11581;51.250;6.778;2023-02-11T08:01:42;103004.72;;;9.98;64.78
22830;BME280;11581;51.250;6.778;2023-02-11T08:04:09;103010.72;;;10.01;64.65
22830;BME280;11581;51.250;6.778;2023-02-11T08:06:40;103019.56;;;10.02;65.07
22830;BME280;11581;51.250;6.778;2023-02-11T08:09:13;103014.94;;;10.05;65.20
22830;BME280;11581;51.250;6.778;2023-02-11T08:11:41;102938.59;;;9.59;64.52
22830;BME280;11581;51.250;6.778;2023-02-11T08:14:10;103011.06;;;10.11;64.59
22830;BME280;11581;51.250;6.778;2023-02-11T08:16:38;103003.84;;;10.13;64.33
22830;BME280;11581;51.250;6.778;2023-02-11T08:19:07;103015.34;;;10.13;64.48
22830;BME280;11581;51.250;6.778;2023-02-11T08:21:34;102994.81;;;10.15;64.30
22830;BME280;11581;51.250;6.778;2023-02-11T08:24:01;103012.50;;;10.16;64.28
22830;BME280;11581;51.250;6.778;2023-02-11T08:26:32;103001.84;;;10.16;64.82
22830;BME280;11581;51.250;6.778;2023-02-11T08:29:01;103014.25;;;10.17;64.45
22830;BME280;11581;51.250;6.778;2023-02-11T08:31:33;102964.25;;;9.91;64.47
22830;BME280;11581;51.250;6.778;2023-02-11T08:34:02;103014.91;;;10.21;64.51
22830;BME280;11581;51.250;6.778;2023-02-11T08:36:31;102991.34;;;10.13;64.15
22830;BME280;11581;51.250;6.778;2023-02-11T08:39:00;103018.19;;;10.26;64.58
22830;BME280;11581;51.250;6.778;2023-02-11T08:41:29;103007.00;;;10.19;64.32
22830;BME280;11581;51.250;6.778;2023-02-11T08:43:57;103029.50;;;10.29;64.34
22830;BME280;11581;51.250;6.778;2023-02-11T08:46:24;102879.16;;;9.43;64.43
22830;BME280;11581;51.250;6.778;2023-02-11T08:48:51;103022.63;;;10.25;64.47
22830;BME280;11581;51.250;6.778;2023-02-11T08:51:20;103023.06;;;10.33;64.60
22830;BME280;11581;51.250;6.778;2023-02-11T08:53:47;102988.41;;;10.18;64.60
22830;BME280;11581;51.250;6.778;2023-02-11T08:56:15;102992.72;;;10.20;64.38
22830;BME280;11581;51.250;6.778;2023-02-11T08:58:44;103036.69;;;10.43;64.46
22830;BME280;11581;51.250;6.778;2023-02-11T09:01:14;103013.03;;;10.23;64.52
22830;BME280;11581;51.250;6.778;2023-02-11T09:03:41;103041.84;;;10.46;64.33
22830;BME280;11581;51.250;6.778;2023-02-11T09:06:11;103042.72;;;10.46;64.49
22830;BME280;11581;51.250;6.778;2023-02-11T09:08:39;103003.03;;;10.26;64.51
22830;BME280;11581;51.250;6.778;2023-02-11T09:11:07;103042.34;;;10.52;64.38
22830;BME280;11581;51.250;6.778;2023-02-11T09:13:34;103045.75;;;10.54;64.51
22830;BME280;11581;51.250;6.778;2023-02-11T09:16:04;103054.56;;;10.56;64.90
22830;BME280;11581;51.250;6.778;2023-02-11T09:18:31;103048.06;;;10.60;64.48
22830;BME280;11581;51.250;6.778;2023-02-11T09:21:01;103017.34;;;10.39;64.80
22830;BME280;11581;51.250;6.778;2023-02-11T09:23:28;103068.09;;;10.67;64.33
22830;BME280;11581;51.250;6.778;2023-02-11T09:25:58;103041.31;;;10.55;64.34
22830;BME280;11581;51.250;6.778;2023-02-11T09:28:25;103068.69;;;10.72;64.30
22830;BME280;11581;51.250;6.778;2023-02-11T09:30:53;103071.16;;;10.75;64.10
22830;BME280;11581;51.250;6.778;2023-02-11T09:33:21;103044.25;;;10.64;64.36
22830;BME280;11581;51.250;6.778;2023-02-11T09:35:49;102856.31;;;9.39;64.02
22830;BME280;11581;51.250;6.778;2023-02-11T09:38:15;103070.81;;;10.81;64.04
22830;BME280;11581;51.250;6.778;2023-02-11T09:40:42;103059.44;;;10.78;64.16
22830;BME280;11581;51.250;6.778;2023-02-11T09:43:13;103050.47;;;10.79;64.47
22830;BME280;11581;51.250;6.778;2023-02-11T09:45:43;103064.88;;;10.90;64.14
22830;BME280;11581;51.250;6.778;2023-02-11T09:48:13;103061.19;;;10.93;64.26
22830;BME280;11581;51.250;6.778;2023-02-11T09:50:45;103069.00;;;10.96;64.32
22830;BME280;11581;51.250;6.778;2023-02-11T09:53:18;103069.84;;;10.96;64.14
22830;BME280;11581;51.250;6.778;2023-02-11T09:55:47;103049.44;;;10.81;63.88
22830;BME280;11581;51.250;6.778;2023-02-11T09:58:26;103089.97;;;11.02;64.16
22830;BME280;11581;51.250;6.778;2023-02-11T10:01:00;103034.81;;;10.73;64.33
22830;BME280;11581;51.250;6.778;2023-02-11T10:03:59;103101.31;;;11.05;64.50
22830;BME280;11581;51.250;6.778;2023-02-11T10:06:36;103107.34;;;11.09;64.19
22830;BME280;11581;51.250;6.778;2023-02-11T10:09:14;103097.50;;;11.09;64.15
22830;BME280;11581;51.250;6.778;2023-02-11T10:11:49;103104.41;;;11.13;64.17
22830;BME280;11581;51.250;6.778;2023-02-11T10:14:34;103127.28;;;11.17;64.24
22830;BME280;11581;51.250;6.778;2023-02-11T10:17:13;103103.81;;;11.22;63.83
22830;BME280;11581;51.250;6.778;2023-02-11T10:19:59;103100.09;;;11.25;64.03
22830;BME280;11581;51.250;6.778;2023-02-11T10:22:34;103099.78;;;11.29;63.82
22830;BME280;11581;51.250;6.778;2023-02-11T10:25:17;103087.59;;;11.11;63.94
22830;BME280;11581;51.250;6.778;2023-02-11T10:27:46;103108.38;;;11.34;63.13
22830;BME280;11581;51.250;6.778;2023-02-11T10:30:20;103107.44;;;11.35;63.52
22830;BME280;11581;51.250;6.778;2023-02-11T10:32:51;103066.97;;;10.99;63.28
22830;BME280;11581;51.250;6.778;2023-02-11T10:35:21;103084.16;;;11.23;63.05
22830;BME280;11581;51.250;6.778;2023-02-11T10:37:50;103108.19;;;11.38;63.22
22830;BME280;11581;51.250;6.778;2023-02-11T10:40:18;103079.13;;;11.19;63.04
22830;BME280;11581;51.250;6.778;2023-02-11T10:42:49;103113.53;;;11.38;63.03
22830;BME280;11581;51.250;6.778;2023-02-11T10:45:22;103111.84;;;11.37;63.48
22830;BME280;11581;51.250;6.778;2023-02-11T10:47:52;103112.66;;;11.37;62.99
22830;BME280;11581;51.250;6.778;2023-02-11T10:50:22;103107.44;;;11.35;63.25
22830;BME280;11581;51.250;6.778;2023-02-11T10:52:51;103115.44;;;11.35;63.30
22830;BME280;11581;51.250;6.778;2023-02-11T10:55:20;103112.66;;;11.37;63.39
22830;BME280;11581;51.250;6.778;2023-02-11T10:57:52;103123.28;;;11.38;63.76
22830;BME280;11581;51.250;6.778;2023-02-11T11:00:33;103106.22;;;11.41;64.03
22830;BME280;11581;51.250;6.778;2023-02-11T11:03:04;103088.72;;;11.35;63.30
22830;BME280;11581;51.250;6.778;2023-02-11T11:05:33;103111.03;;;11.49;63.35
22830;BME280;11581;51.250;6.778;2023-02-11T11:08:03;103116.19;;;11.52;63.64
22830;BME280;11581;51.250;6.778;2023-02-11T11:10:37;103119.44;;;11.57;63.76
22830;BME280;11581;51.250;6.778;2023-02-11T11:13:26;103118.28;;;11.61;63.92
22830;BME280;11581;51.250;6.778;2023-02-11T11:16:08;103111.81;;;11.65;63.58
22830;BME280;11581;51.250;6.778;2023-02-11T11:18:43;103120.41;;;11.70;62.85
22830;BME280;11581;51.250;6.778;2023-02-11T11:21:13;103104.94;;;11.61;62.92
22830;BME280;11581;51.250;6.778;2023-02-11T11:23:49;103123.00;;;11.71;63.23
22830;BME280;11581;51.250;6.778;2023-02-11T11:26:18;103121.19;;;11.72;62.74
22830;BME280;11581;51.250;6.778;2023-02-11T11:28:56;103114.88;;;11.73;63.28
22830;BME280;11581;51.250;6.778;2023-02-11T11:31:27;103117.44;;;11.74;63.01
22830;BME280;11581;51.250;6.778;2023-02-11T11:33:57;103091.50;;;11.62;62.90
22830;BME280;11581;51.250;6.778;2023-02-11T11:36:32;103119.06;;;11.77;63.19
22830;BME280;11581;51.250;6.778;2023-02-11T11:39:02;103118.78;;;11.81;63.01
22830;BME280;11581;51.250;6.778;2023-02-11T11:41:31;103125.72;;;11.84;62.13
22830;BME280;11581;51.250;6.778;2023-02-11T11:44:03;103090.25;;;11.68;62.62
22830;BME280;11581;51.250;6.778;2023-02-11T11:46:35;103125.72;;;11.84;62.51
22830;BME280;11581;51.250;6.778;2023-02-11T11:49:19;103103.78;;;11.79;63.29
22830;BME280;11581;51.250;6.778;2023-02-11T11:51:56;103069.25;;;11.48;62.94
22830;BME280;11581;51.250;6.778;2023-02-11T11:54:26;103113.88;;;11.88;62.79
22830;BME280;11581;51.250;6.778;2023-02-11T11:56:58;103112.06;;;11.88;62.85
22830;BME280;11581;51.250;6.778;2023-02-11T11:59:26;103102.97;;;11.91;62.66
22830;BME280;11581;51.250;6.778;2023-02-11T12:02:29;103092.69;;;11.85;63.23
22830;BME280;11581;51.250;6.778;2023-02-11T12:05:05;103109.09;;;11.93;62.44
22830;BME280;11581;51.250;6.778;2023-02-11T12:07:45;103003.59;;;11.29;62.68
22830;BME280;11581;51.250;6.778;2023-02-11T12:10:30;103044.66;;;11.43;62.99
22830;BME280;11581;51.250;6.778;2023-02-11T12:13:08;102936.53;;;10.93;63.11
22830;BME280;11581;51.250;6.778;2023-02-11T12:15:50;102979.59;;;11.15;63.15
22830;BME280;11581;51.250;6.778;2023-02-11T12:18:42;102951.31;;;10.99;63.40
22830;BME280;11581;51.250;6.778;2023-02-11T12:21:22;103086.78;;;11.80;63.28
22830;BME280;11581;51.250;6.778;2023-02-11T12:24:02;103127.63;;;11.96;63.11
22830;BME280;11581;51.250;6.778;2023-02-11T12:26:40;103112.25;;;11.99;63.25
22830;BME280;11581;51.250;6.778;2023-02-11T12:29:19;103112.88;;;12.03;63.07
22830;BME280;11581;51.250;6.778;2023-02-11T12:31:56;103105.53;;;12.06;62.95
22830;BME280;11581;51.250;6.778;2023-02-11T12:34:41;103036.03;;;11.52;63.11
22830;BME280;11581;51.250;6.778;2023-02-11T12:37:22;103104.25;;;12.12;62.68
22830;BME280;11581;51.250;6.778;2023-02-11T12:40:02;103098.81;;;12.13;62.84
22830;BME280;11581;51.250;6.778;2023-02-11T12:43:01;102947.72;;;11.26;62.93
22830;BME280;11581;51.250;6.778;2023-02-11T12:46:07;102813.44;;;10.29;62.51
22830;BME280;11581;51.250;6.778;2023-02-11T12:48:55;103019.38;;;11.75;62.86
22830;BME280;11581;51.250;6.778;2023-02-11T12:51:36;102999.75;;;11.62;62.52
22830;BME280;11581;51.250;6.778;2023-02-11T12:54:16;103099.25;;;12.20;62.63
22830;BME280;11581;51.250;6.778;2023-02-11T12:56:46;102815.13;;;10.58;62.31
22830;BME280;11581;51.250;6.778;2023-02-11T12:59:37;102963.13;;;11.50;62.50
22830;BME280;11581;51.250;6.778;2023-02-11T13:02:33;102972.25;;;11.60;62.50
22830;BME280;11581;51.250;6.778;2023-02-11T13:05:17;103002.81;;;11.82;62.59
22830;BME280;11581;51.250;6.778;2023-02-11T13:07:49;103080.66;;;12.31;62.06
22830;BME280;11581;51.250;6.778;2023-02-11T13:10:25;103008.22;;;11.95;62.41
22830;BME280;11581;51.250;6.778;2023-02-11T13:13:01;103076.81;;;12.35;62.31
22830;BME280;11581;51.250;6.778;2023-02-11T13:15:47;102911.06;;;11.28;62.47
22830;BME280;11581;51.250;6.778;2023-02-11T13:18:27;103072.75;;;12.42;62.69
22830;BME280;11581;51.250;6.778;2023-02-11T13:21:00;102848.19;;;11.10;62.21
22830;BME280;11581;51.250;6.778;2023-02-11T13:23:38;102993.59;;;12.00;62.03